Terminal Aerodrome Forecast
Issued by NWS Boston, MA

Current Version | Previous Version | Text Only | Print | Product List | Glossary On
Versions: 1 2 3 4 5 6 7 8 9 10 11 12 13 14 15 16 17 18 19 20 21 22 23 24 25 26 27 28 29 30 31 32 33 34 35
000 FTUS41 KBOX 272324 TAFORH TAF KORH 272324Z 2800/2824 29005KT 3SM -RA BR VCTS BKN060CB FM280100 29005KT P6SM BKN060 FM280600 32005KT P6SM SCT120 FM281300 35009KT P6SM FEW060=

USA.gov is the U.S. government's official web portal to all federal, state and local government web resources and services.